Urb Santa Isidra 2, Puerto Rico
Current Conditions -  °F | °C
As of 6:53 AM on Sunday 23 Nov 2014 (Local Time) from TJNR Reporting Station
Broken Clouds Broken Clouds  
Wind Chill: 79°   Ceiling: 9500
Heat Index: 82°   Visibility: 10mi
Dew Point: 73°   Wind: 8mph
Humidity: 82%   Direction: 100°E
Pressure: 30.04"   Gusts: NA
Location:  18.3304°N, 65.6573°W
Report Text: TJNR 231053Z AUTO 10007KT 10SM FEW026 SCT050 BKN095 26/23 A3004 RMK AO2 RAB25E36 SLP172 P0000 T02610228 $
Loading
Personal Weather Stations






























Interactive Weather Map New forecast layout! Learn more

10-Day Weather Forecast

Advertisements
Track Severe Weather on mobile